Terminal Aerodrome Forecast
Issued by NWS Cleveland, OH

Home | Current Version | Previous Version | Graphics & Text | Print | Product List | Glossary On
Versions: 1 2 3 4 5 6 7 8 9 10 11 12 13 14 15 16 17 18 19 20 21 22 23
000
FTUS41 KCLE 301800 AAA
TAFCAK
TAF AMD
KCAK 301836Z 3019/0118 33007KT P6SM SCT007 BKN015
      TEMPO 3019/3022 4SM -RA BR BKN007 OVC015
     FM010500 35003KT 2SM BR BKN005
     FM010800 36002KT 3/4SM BR VV003
     FM011500 04004KT P6SM OVC010=

USA.gov is the U.S. government's official web portal to all federal, state and local government web resources and services.